Time;durP1;ratioP1;P1;durP2;ratioP2;P2;SDS_P1;SDS_P2;PMS_P1;PMS_P2;Temp;Humidity;BMP_temperature;BMP_pressure;BME280_temperature;BME280_humidity;BME280_pressure;Samples;Min_cycle;Max_cycle;Signal;HPM_P1;HPM_P2
2021/06/22 00:00:10;;;;;;;10.43;5.03;;;22.20;99.90;;;;;;5094707;28;20081;-76
2021/06/22 00:02:36;;;;;;;7.20;5.03;;;22.10;99.90;;;;;;5103802;28;20024;-77
2021/06/22 00:05:04;;;;;;;8.40;5.57;;;22.10;99.90;;;;;;5106591;28;20026;-76
2021/06/22 00:07:29;;;;;;;12.90;5.03;;;22.00;99.90;;;;;;5109020;28;20046;-76
2021/06/22 00:09:55;;;;;;;7.75;5.63;;;21.90;99.90;;;;;;5107461;28;20028;-76
2021/06/22 00:12:20;;;;;;;8.13;5.32;;;21.90;99.90;;;;;;5105119;28;20053;-76
2021/06/22 00:14:46;;;;;;;8.07;5.03;;;21.90;99.90;;;;;;5100358;28;20024;-77
2021/06/22 00:17:11;;;;;;;6.85;5.13;;;21.90;99.90;;;;;;5109662;28;20028;-77
2021/06/22 00:19:37;;;;;;;7.60;5.55;;;21.90;99.90;;;;;;5111433;28;20032;-76
2021/06/22 00:22:03;;;;;;;9.30;5.45;;;21.90;99.90;;;;;;5097697;28;20386;-77
2021/06/22 00:24:29;;;;;;;9.55;5.90;;;21.80;99.90;;;;;;5096220;28;20051;-77
2021/06/22 00:26:54;;;;;;;7.05;5.93;;;21.70;99.90;;;;;;5097127;28;20119;-76
2021/06/22 00:29:22;;;;;;;7.78;5.80;;;21.80;99.90;;;;;;5100930;28;20044;-76
2021/06/22 00:31:48;;;;;;;8.55;5.28;;;21.90;99.90;;;;;;5106614;28;20387;-77
2021/06/22 00:34:13;;;;;;;11.23;6.18;;;22.00;99.90;;;;;;5106775;28;20024;-76
2021/06/22 00:36:39;;;;;;;8.25;5.50;;;22.00;99.90;;;;;;5093527;28;20038;-76
2021/06/22 00:39:04;;;;;;;8.85;6.30;;;22.00;99.90;;;;;;5096558;28;20482;-76
2021/06/22 00:41:30;;;;;;;9.70;6.25;;;22.00;99.90;;;;;;5108283;27;20020;-76
2021/06/22 00:44:03;;;;;;;9.32;6.28;;;22.00;99.90;;;;;;5100576;27;20024;-76
2021/06/22 00:46:29;;;;;;;7.50;6.10;;;22.00;99.90;;;;;;5103550;28;20030;-76
2021/06/22 00:48:55;;;;;;;11.80;6.70;;;21.90;99.90;;;;;;5100082;28;20478;-77
2021/06/22 00:51:20;;;;;;;11.70;6.03;;;21.90;99.90;;;;;;5098490;27;20024;-76
2021/06/22 00:53:46;;;;;;;8.43;6.30;;;21.90;99.90;;;;;;5097505;27;20356;-76
2021/06/22 00:56:12;;;;;;;10.02;6.80;;;21.90;99.90;;;;;;5094406;28;20017;-77
2021/06/22 00:58:37;;;;;;;10.77;6.47;;;22.00;99.90;;;;;;5102594;28;20116;-77
2021/06/22 01:01:03;;;;;;;7.47;6.53;;;22.00;99.90;;;;;;5088155;28;20051;-76
2021/06/22 01:03:29;;;;;;;9.25;6.15;;;21.90;99.90;;;;;;5109607;28;20093;-76
2021/06/22 01:05:55;;;;;;;10.63;6.70;;;22.00;99.90;;;;;;5104139;28;20048;-76
2021/06/22 01:08:20;;;;;;;13.00;6.07;;;22.10;99.90;;;;;;5104179;28;20448;-77
2021/06/22 01:10:46;;;;;;;11.65;6.70;;;22.00;99.90;;;;;;5092812;28;20028;-77
2021/06/22 01:13:12;;;;;;;11.82;5.93;;;22.00;99.90;;;;;;5106471;28;20032;-76
2021/06/22 01:15:37;;;;;;;9.57;6.28;;;22.00;99.90;;;;;;5112358;27;20046;-77
2021/06/22 01:18:05;;;;;;;10.27;7.38;;;21.90;99.90;;;;;;5105775;28;20521;-75
2021/06/22 01:20:31;;;;;;;12.55;6.82;;;21.80;99.90;;;;;;5101096;28;20045;-74
2021/06/22 01:22:59;;;;;;;8.63;6.53;;;21.80;99.90;;;;;;5102732;28;20035;-74
2021/06/22 01:25:25;;;;;;;11.45;6.63;;;21.80;99.90;;;;;;5108612;28;20730;-74
2021/06/22 01:27:51;;;;;;;9.50;6.28;;;21.80;99.90;;;;;;5104826;27;20027;-77
2021/06/22 01:30:17;;;;;;;14.73;7.22;;;21.70;99.90;;;;;;5106302;28;20040;-77
2021/06/22 01:32:43;;;;;;;7.97;6.30;;;21.70;99.90;;;;;;5107262;28;20027;-74
2021/06/22 01:35:10;;;;;;;9.48;6.35;;;21.70;99.90;;;;;;5101306;28;20414;-76
2021/06/22 01:37:35;;;;;;;9.00;6.60;;;21.70;99.90;;;;;;5097550;28;20055;-75
2021/06/22 01:40:04;;;;;;;9.23;6.53;;;21.70;99.90;;;;;;5108743;28;20051;-75
2021/06/22 01:42:29;;;;;;;7.22;5.93;;;21.70;99.90;;;;;;5097899;28;20055;-74
2021/06/22 01:44:56;;;;;;;10.50;6.55;;;21.70;99.90;;;;;;5102353;28;20054;-75
2021/06/22 01:47:22;;;;;;;8.15;5.95;;;21.70;99.90;;;;;;5093582;28;20024;-74
2021/06/22 01:49:56;;;;;;;11.88;7.22;;;21.70;99.90;;;;;;5102766;28;20113;-74
2021/06/22 01:52:22;;;;;;;13.20;7.38;;;21.60;99.90;;;;;;5097278;28;20027;-75
2021/06/22 01:54:47;;;;;;;10.13;7.53;;;21.50;99.90;;;;;;5094000;28;20032;-75
2021/06/22 01:57:13;;;;;;;15.25;7.07;;;21.40;99.90;;;;;;5091940;28;20015;-76
2021/06/22 01:59:40;;;;;;;10.23;7.15;;;21.40;99.90;;;;;;5090897;28;20024;-76
2021/06/22 02:02:06;;;;;;;12.63;8.18;;;21.30;99.90;;;;;;5099530;28;20032;-76
2021/06/22 02:04:33;;;;;;;10.52;7.15;;;21.30;99.90;;;;;;5093454;28;20539;-76
2021/06/22 02:06:58;;;;;;;9.40;7.28;;;21.30;99.90;;;;;;5098243;28;20044;-76
2021/06/22 02:09:24;;;;;;;13.88;7.82;;;21.30;99.90;;;;;;5095178;28;20073;-76
2021/06/22 02:11:49;;;;;;;14.85;7.90;;;21.30;99.90;;;;;;5103441;28;20474;-77
2021/06/22 02:14:15;;;;;;;11.70;7.95;;;21.20;99.90;;;;;;5099669;28;20131;-77
2021/06/22 02:16:40;;;;;;;13.98;8.88;;;21.20;99.90;;;;;;5102905;28;20055;-75
2021/06/22 02:19:05;;;;;;;13.43;8.75;;;21.10;99.90;;;;;;5109068;28;20024;-77
2021/06/22 02:21:31;;;;;;;14.55;8.50;;;21.10;99.90;;;;;;5102228;28;20459;-76
2021/06/22 02:23:57;;;;;;;14.05;8.40;;;21.10;99.90;;;;;;5106344;28;20031;-76
2021/06/22 02:26:22;;;;;;;15.13;8.93;;;21.10;99.90;;;;;;5096061;28;20496;-77
2021/06/22 02:28:47;;;;;;;14.98;8.52;;;21.10;99.90;;;;;;5099299;28;20030;-76
2021/06/22 02:31:13;;;;;;;11.40;8.07;;;21.10;99.90;;;;;;5093171;28;20066;-77
2021/06/22 02:33:39;;;;;;;14.00;8.25;;;21.20;99.90;;;;;;5109478;28;20051;-77
2021/06/22 02:36:05;;;;;;;11.93;7.40;;;21.20;99.90;;;;;;5101866;28;20022;-77
2021/06/22 02:38:30;;;;;;;12.15;7.40;;;21.20;99.90;;;;;;5101548;28;20024;-76
2021/06/22 02:40:56;;;;;;;11.50;7.88;;;21.10;99.90;;;;;;5107588;28;20030;-77
2021/06/22 02:43:21;;;;;;;18.83;8.45;;;21.10;99.90;;;;;;5098200;28;20039;-74
2021/06/22 02:45:47;;;;;;;12.25;8.07;;;21.10;99.90;;;;;;5105358;28;20367;-74
2021/06/22 02:48:13;;;;;;;14.73;8.27;;;21.10;99.90;;;;;;5108817;28;20047;-74
2021/06/22 02:50:40;;;;;;;14.85;8.32;;;21.10;99.90;;;;;;5098918;28;20074;-76
2021/06/22 02:53:06;;;;;;;13.82;8.90;;;21.10;99.90;;;;;;5094560;28;20039;-76
2021/06/22 02:55:32;;;;;;;12.43;8.13;;;21.00;99.90;;;;;;5108315;28;20023;-76
2021/06/22 02:57:58;;;;;;;14.25;8.20;;;21.00;99.90;;;;;;5094793;28;20444;-77
2021/06/22 03:00:26;;;;;;;13.18;8.35;;;21.00;99.90;;;;;;5093200;28;20043;-74
2021/06/22 03:02:52;;;;;;;10.70;7.68;;;20.90;99.90;;;;;;5095860;28;20486;-74
2021/06/22 03:05:19;;;;;;;12.50;7.97;;;20.90;99.90;;;;;;5095475;28;20526;-76
2021/06/22 03:07:45;;;;;;;12.15;8.02;;;20.90;99.90;;;;;;5102397;28;20047;-77
2021/06/22 03:10:14;;;;;;;13.65;9.07;;;20.90;99.90;;;;;;5104197;28;20110;-77
2021/06/22 03:12:40;;;;;;;12.13;8.75;;;20.90;99.90;;;;;;5100699;28;20382;-77
2021/06/22 03:15:08;;;;;;;14.48;8.07;;;20.90;99.90;;;;;;5099028;28;20020;-76
2021/06/22 03:17:34;;;;;;;15.05;9.48;;;20.90;99.90;;;;;;5099770;28;20023;-76
2021/06/22 03:20:00;;;;;;;18.60;9.88;;;20.90;99.90;;;;;;5097730;28;20500;-77
2021/06/22 03:22:25;;;;;;;15.75;9.07;;;20.90;99.90;;;;;;5099816;28;20079;-77
2021/06/22 03:24:51;;;;;;;14.27;8.98;;;20.90;99.90;;;;;;5107937;28;20605;-74
2021/06/22 03:27:16;;;;;;;12.60;8.45;;;20.80;99.90;;;;;;5107745;28;20030;-74
2021/06/22 03:29:42;;;;;;;11.98;9.25;;;20.80;99.90;;;;;;5102246;28;20615;-77
2021/06/22 03:32:07;;;;;;;15.88;9.88;;;20.80;99.90;;;;;;5102635;28;20032;-77
2021/06/22 03:34:35;;;;;;;12.90;9.20;;;20.80;99.90;;;;;;5106860;28;20048;-77
2021/06/22 03:37:00;;;;;;;14.25;10.50;;;20.70;99.90;;;;;;5107589;28;20481;-77
2021/06/22 03:39:25;;;;;;;18.80;9.63;;;20.70;99.90;;;;;;5097878;28;20044;-75
2021/06/22 03:41:54;;;;;;;15.27;9.85;;;20.70;99.90;;;;;;5097986;28;20551;-75
2021/06/22 03:44:19;;;;;;;17.13;9.77;;;20.70;99.90;;;;;;5097044;28;20416;-75
2021/06/22 03:46:45;;;;;;;14.88;8.95;;;20.70;99.90;;;;;;5099844;28;20031;-75
2021/06/22 03:49:10;;;;;;;16.33;8.75;;;20.60;99.90;;;;;;5107271;28;20032;-74
2021/06/22 03:51:36;;;;;;;14.25;8.98;;;20.60;99.90;;;;;;5099296;28;20024;-75
2021/06/22 03:54:01;;;;;;;14.10;9.02;;;20.60;99.90;;;;;;5099854;28;20048;-77
2021/06/22 03:56:28;;;;;;;15.27;8.77;;;20.60;99.90;;;;;;5101031;27;20474;-76
2021/06/22 03:58:53;;;;;;;13.82;8.77;;;20.60;99.90;;;;;;5097630;27;20045;-76
2021/06/22 04:01:19;;;;;;;18.05;9.02;;;20.50;99.90;;;;;;5107276;27;20024;-76
2021/06/22 04:03:45;;;;;;;15.23;8.93;;;20.50;99.90;;;;;;5098665;28;20475;-76
2021/06/22 04:06:10;;;;;;;15.85;8.70;;;20.60;99.90;;;;;;5106116;27;20023;-76
2021/06/22 04:08:37;;;;;;;18.52;8.52;;;20.60;99.90;;;;;;5095062;28;20562;-76
2021/06/22 04:11:03;;;;;;;16.88;8.85;;;20.60;99.90;;;;;;5103332;28;20032;-76
2021/06/22 04:13:29;;;;;;;15.90;8.80;;;20.60;99.90;;;;;;5102848;28;20386;-75
2021/06/22 04:15:55;;;;;;;16.42;9.45;;;20.70;99.90;;;;;;5097224;28;20032;-75
2021/06/22 04:18:21;;;;;;;19.30;10.73;;;20.70;99.90;;;;;;5095728;28;20042;-76
2021/06/22 04:20:48;;;;;;;16.05;9.80;;;20.60;99.90;;;;;;5098072;28;20036;-76
2021/06/22 04:23:13;;;;;;;24.88;11.15;;;20.60;99.90;;;;;;5104699;28;20032;-76
2021/06/22 04:25:39;;;;;;;20.65;10.07;;;20.70;99.90;;;;;;5107548;28;20028;-77
2021/06/22 04:28:05;;;;;;;22.48;12.00;;;20.60;99.90;;;;;;5093113;28;20390;-76
2021/06/22 04:30:33;;;;;;;20.98;11.02;;;20.60;99.90;;;;;;5107724;28;20027;-76
2021/06/22 04:32:59;;;;;;;22.05;10.82;;;20.60;99.90;;;;;;5104010;28;20107;-76
2021/06/22 04:35:27;;;;;;;18.35;11.27;;;20.60;99.90;;;;;;5094747;28;20103;-76
2021/06/22 04:37:52;;;;;;;20.20;11.55;;;20.60;99.90;;;;;;5098958;28;20027;-76
2021/06/22 04:40:18;;;;;;;21.70;11.55;;;20.50;99.90;;;;;;5103921;28;20539;-76
2021/06/22 04:42:44;;;;;;;30.15;12.52;;;20.50;99.90;;;;;;5111699;28;20023;-76
2021/06/22 04:45:10;;;;;;;24.65;12.00;;;20.50;99.90;;;;;;5099722;28;20486;-76
2021/06/22 04:47:36;;;;;;;29.02;13.55;;;20.50;99.90;;;;;;5104556;27;20024;-76
2021/06/22 04:50:03;;;;;;;25.52;13.88;;;20.50;99.90;;;;;;5105261;28;20112;-76
2021/06/22 04:52:28;;;;;;;31.65;13.65;;;20.50;99.90;;;;;;5110685;28;20055;-76
2021/06/22 04:54:53;;;;;;;29.73;13.90;;;20.40;99.90;;;;;;5106108;28;20035;-76
2021/06/22 04:57:20;;;;;;;28.33;15.40;;;20.30;99.90;;;;;;5089538;28;20438;-76
2021/06/22 04:59:46;;;;;;;25.90;13.23;;;20.20;99.90;;;;;;5099455;27;20541;-78
2021/06/22 05:02:12;;;;;;;26.83;14.60;;;20.10;99.90;;;;;;5095078;27;20032;-80
2021/06/22 05:04:39;;;;;;;25.40;13.55;;;20.00;99.90;;;;;;5104911;28;20031;-79
2021/06/22 05:07:05;;;;;;;27.75;13.95;;;19.90;99.90;;;;;;5101998;27;20079;-75
2021/06/22 05:09:30;;;;;;;28.55;14.40;;;19.90;99.90;;;;;;5097801;27;20059;-75
2021/06/22 05:11:56;;;;;;;29.15;14.25;;;19.90;99.90;;;;;;5102345;27;20067;-75
2021/06/22 05:14:21;;;;;;;37.15;14.60;;;19.90;99.90;;;;;;5106623;28;20020;-75
2021/06/22 05:16:49;;;;;;;31.10;14.35;;;19.90;99.90;;;;;;5099160;28;20032;-79
2021/06/22 05:19:15;;;;;;;27.45;14.25;;;19.70;99.90;;;;;;5093330;28;20031;-82
2021/06/22 05:21:40;;;;;;;25.65;13.25;;;19.70;99.90;;;;;;5092740;28;20046;-75
2021/06/22 05:24:06;;;;;;;26.48;12.73;;;19.60;99.90;;;;;;5099221;28;20036;-75
2021/06/22 05:26:31;;;;;;;27.10;12.63;;;19.50;99.90;;;;;;5101540;28;20080;-76
2021/06/22 05:28:57;;;;;;;29.92;12.95;;;19.50;99.90;;;;;;5104113;28;20075;-78
2021/06/22 05:31:22;;;;;;;22.92;11.30;;;19.50;99.90;;;;;;5097104;28;20486;-74
2021/06/22 05:33:48;;;;;;;18.52;10.30;;;19.40;99.90;;;;;;5093016;28;20069;-76
2021/06/22 05:36:14;;;;;;;19.15;10.05;;;19.30;99.90;;;;;;5094890;28;20158;-73
2021/06/22 05:38:39;;;;;;;16.48;10.13;;;19.20;99.90;;;;;;5107068;28;20023;-75
2021/06/22 05:41:05;;;;;;;17.73;9.90;;;19.20;99.90;;;;;;5109380;28;20481;-73
2021/06/22 05:43:30;;;;;;;18.45;9.73;;;19.30;99.90;;;;;;5106749;28;20505;-74
2021/06/22 05:45:56;;;;;;;16.95;8.68;;;19.30;99.90;;;;;;5110284;28;20031;-74
2021/06/22 05:48:22;;;;;;;16.45;8.50;;;19.40;99.90;;;;;;5096339;28;20118;-74
2021/06/22 05:50:47;;;;;;;19.23;8.93;;;19.40;99.90;;;;;;5101456;28;20119;-73
2021/06/22 05:53:13;;;;;;;15.75;8.15;;;19.40;99.90;;;;;;5098999;28;20027;-73
2021/06/22 05:55:38;;;;;;;16.75;8.05;;;19.50;99.90;;;;;;5104923;28;20023;-73
2021/06/22 05:58:04;;;;;;;11.52;6.32;;;19.50;99.90;;;;;;5103636;28;20020;-73
2021/06/22 06:00:31;;;;;;;10.93;6.47;;;19.50;99.90;;;;;;5098019;28;20035;-73
2021/06/22 06:02:57;;;;;;;9.02;5.03;;;19.60;99.90;;;;;;5106882;28;20054;-74
2021/06/22 06:05:23;;;;;;;9.32;5.38;;;19.60;99.90;;;;;;5091316;28;20482;-73
2021/06/22 06:07:49;;;;;;;9.00;4.70;;;19.50;99.90;;;;;;5106345;28;20051;-73
2021/06/22 06:10:15;;;;;;;12.00;4.75;;;19.50;99.90;;;;;;5099715;28;20032;-73
2021/06/22 06:12:42;;;;;;;11.20;5.00;;;19.50;99.90;;;;;;5100046;28;20031;-73
2021/06/22 06:15:09;;;;;;;10.23;4.95;;;19.40;99.90;;;;;;5104301;28;20032;-73
2021/06/22 06:17:35;;;;;;;9.00;4.72;;;19.40;99.90;;;;;;5094103;28;20720;-73
2021/06/22 06:20:01;;;;;;;8.00;4.80;;;19.30;99.90;;;;;;5092578;28;20466;-71
2021/06/22 06:22:27;;;;;;;8.25;3.25;;;19.30;99.90;;;;;;5107770;28;20038;-78
2021/06/22 06:24:55;;;;;;;7.65;3.67;;;19.40;99.90;;;;;;5099754;28;20649;-75
2021/06/22 06:27:36;;;;;;;7.85;3.42;;;19.30;99.90;;;;;;5097728;28;20063;-74
2021/06/22 06:30:16;;;;;;;5.38;3.22;;;19.30;99.90;;;;;;5108014;28;20055;-75
2021/06/22 06:32:41;;;;;;;4.13;2.67;;;19.30;99.90;;;;;;5097267;28;20058;-74
2021/06/22 06:35:08;;;;;;;5.55;2.78;;;19.40;99.90;;;;;;5107490;28;20047;-77
2021/06/22 06:37:34;;;;;;;3.47;2.45;;;19.40;99.90;;;;;;5102346;28;20051;-77
2021/06/22 06:39:59;;;;;;;3.30;2.30;;;19.40;99.90;;;;;;5096507;28;20379;-78
2021/06/22 06:42:25;;;;;;;3.78;2.53;;;19.40;99.90;;;;;;5099815;28;20446;-78
2021/06/22 06:45:08;;;;;;;5.93;2.55;;;19.50;99.90;;;;;;5109118;28;20115;-77
2021/06/22 06:47:33;;;;;;;3.83;2.30;;;19.50;99.90;;;;;;5105412;28;20124;-78
2021/06/22 06:49:59;;;;;;;5.25;2.40;;;19.50;99.90;;;;;;5105370;28;20119;-78
2021/06/22 06:52:25;;;;;;;3.75;2.30;;;19.60;99.90;;;;;;5102654;28;20084;-77
2021/06/22 06:54:50;;;;;;;3.47;1.98;;;19.60;99.90;;;;;;5108791;28;20019;-77
2021/06/22 06:57:16;;;;;;;4.35;2.53;;;19.60;99.90;;;;;;5097905;28;20051;-77
2021/06/22 06:59:41;;;;;;;3.10;1.92;;;19.60;99.90;;;;;;5098305;28;20081;-78
2021/06/22 07:02:08;;;;;;;6.47;2.60;;;19.50;99.90;;;;;;5096584;28;20395;-78
2021/06/22 07:04:33;;;;;;;4.57;2.25;;;19.50;99.90;;;;;;5108087;28;20473;-77
2021/06/22 07:06:59;;;;;;;4.70;2.10;;;19.50;99.90;;;;;;5107069;28;20039;-78
2021/06/22 07:09:25;;;;;;;4.35;2.03;;;19.50;99.90;;;;;;5105009;28;20085;-77
2021/06/22 07:11:51;;;;;;;6.05;2.22;;;19.60;99.90;;;;;;5100906;28;20044;-78
2021/06/22 07:14:17;;;;;;;4.00;2.42;;;19.60;99.90;;;;;;5108977;28;20058;-78
2021/06/22 07:16:42;;;;;;;5.18;2.63;;;19.60;99.90;;;;;;5108203;28;20019;-78
2021/06/22 07:19:08;;;;;;;5.15;2.30;;;19.70;99.90;;;;;;5107197;28;20054;-78
2021/06/22 07:21:34;;;;;;;6.60;2.47;;;19.80;99.90;;;;;;5097101;28;20028;-78
2021/06/22 07:23:59;;;;;;;4.22;2.25;;;19.80;99.90;;;;;;5108037;28;20114;-78
2021/06/22 07:26:25;;;;;;;3.00;2.10;;;20.00;99.90;;;;;;5108446;28;20416;-77
2021/06/22 07:28:51;;;;;;;3.45;2.70;;;20.10;99.90;;;;;;5105638;28;20031;-77
2021/06/22 07:31:17;;;;;;;5.22;2.72;;;20.10;99.90;;;;;;5103743;28;20163;-77
2021/06/22 07:33:43;;;;;;;4.18;2.60;;;20.10;99.90;;;;;;5094675;28;20047;-77
2021/06/22 07:36:09;;;;;;;3.05;2.33;;;20.10;99.90;;;;;;5108737;28;20042;-77
2021/06/22 07:38:35;;;;;;;5.65;2.80;;;20.00;99.90;;;;;;5101116;28;20028;-77
2021/06/22 07:41:00;;;;;;;4.00;2.42;;;20.00;99.90;;;;;;5107637;28;20040;-77
2021/06/22 07:43:26;;;;;;;5.47;2.72;;;19.90;99.90;;;;;;5100703;28;20035;-77
2021/06/22 07:46:00;;;;;;;6.85;2.47;;;19.90;99.90;;;;;;5101247;28;20067;-78
2021/06/22 07:48:26;;;;;;;4.00;2.15;;;20.00;99.90;;;;;;5100572;28;20024;-77
2021/06/22 07:50:51;;;;;;;3.50;2.30;;;20.20;99.90;;;;;;5101000;28;20089;-77
2021/06/22 07:53:19;;;;;;;2.67;2.45;;;20.20;99.90;;;;;;5111074;28;20035;-77
2021/06/22 07:55:45;;;;;;;2.47;1.95;;;20.20;99.90;;;;;;5110354;28;20023;-78
2021/06/22 07:58:10;;;;;;;2.58;1.90;;;20.20;99.90;;;;;;5111791;28;20020;-77
2021/06/22 08:00:41;;;;;;;4.72;2.58;;;20.20;99.90;;;;;;5098588;28;20043;-77
2021/06/22 08:03:14;;;;;;;3.38;2.38;;;20.00;99.90;;;;;;5104479;27;20026;-78
2021/06/22 08:05:41;;;;;;;5.60;2.45;;;20.00;99.90;;;;;;5099168;28;20047;-77
2021/06/22 08:08:08;;;;;;;3.22;2.40;;;19.80;99.90;;;;;;5111971;28;20444;-77
2021/06/22 08:10:35;;;;;;;3.05;2.60;;;19.80;99.90;;;;;;5105194;28;20077;-77
2021/06/22 08:13:00;;;;;;;3.28;2.80;;;19.60;99.90;;;;;;5111203;28;20496;-77
2021/06/22 08:15:27;;;;;;;7.95;2.92;;;19.40;99.90;;;;;;5110262;28;20088;-77
2021/06/22 08:17:53;;;;;;;8.93;3.10;;;19.40;99.90;;;;;;5101159;28;20065;-77
2021/06/22 08:20:19;;;;;;;4.75;3.15;;;19.30;99.90;;;;;;5111291;28;20027;-77
2021/06/22 08:22:46;;;;;;;5.35;3.13;;;19.40;99.90;;;;;;5111747;28;20027;-78
2021/06/22 08:25:12;;;;;;;5.90;3.17;;;19.30;99.90;;;;;;5108167;28;20031;-77
2021/06/22 08:27:37;;;;;;;5.55;2.67;;;19.30;99.90;;;;;;5108686;28;20412;-77
2021/06/22 08:30:05;;;;;;;3.67;2.92;;;19.30;99.90;;;;;;5104414;28;20027;-78
2021/06/22 08:32:31;;;;;;;8.00;3.08;;;19.30;99.90;;;;;;5102693;28;20063;-77
2021/06/22 08:34:57;;;;;;;4.63;2.80;;;19.20;99.90;;;;;;5110422;28;20116;-77
2021/06/22 08:37:23;;;;;;;7.75;3.40;;;19.20;99.90;;;;;;5110836;28;20015;-77
2021/06/22 08:39:48;;;;;;;4.72;3.05;;;19.20;99.90;;;;;;5106083;28;20038;-78
2021/06/22 08:42:17;;;;;;;4.85;3.25;;;19.10;99.90;;;;;;5095347;28;20028;-77
2021/06/22 08:44:43;;;;;;;9.20;3.28;;;19.10;99.90;;;;;;5107141;28;20053;-77
2021/06/22 08:47:10;;;;;;;6.05;3.15;;;19.10;99.90;;;;;;5110661;28;20108;-77
2021/06/22 08:49:35;;;;;;;4.25;2.97;;;19.20;99.90;;;;;;5101468;28;20144;-78
2021/06/22 08:52:02;;;;;;;5.22;3.10;;;19.10;99.90;;;;;;5103129;28;20506;-77
2021/06/22 08:54:28;;;;;;;4.60;3.10;;;19.10;99.90;;;;;;5107360;28;20034;-77
2021/06/22 08:56:55;;;;;;;3.38;3.08;;;19.10;99.90;;;;;;5108879;28;20431;-78
2021/06/22 08:59:21;;;;;;;5.60;3.28;;;19.10;99.90;;;;;;5108878;28;20024;-77
2021/06/22 09:01:47;;;;;;;4.45;2.80;;;19.00;99.90;;;;;;5101111;28;20034;-77
2021/06/22 09:04:12;;;;;;;4.55;2.97;;;18.90;99.90;;;;;;5093088;28;20705;-77
2021/06/22 09:06:40;;;;;;;5.35;2.95;;;18.90;99.90;;;;;;5110445;27;20082;-77
2021/06/22 09:09:07;;;;;;;3.55;2.83;;;19.00;99.90;;;;;;5101365;28;20398;-77
2021/06/22 09:11:32;;;;;;;5.82;2.83;;;19.00;99.90;;;;;;5101916;28;20028;-78
2021/06/22 09:14:01;;;;;;;4.55;3.22;;;19.00;99.90;;;;;;5104313;28;20027;-77
2021/06/22 09:16:27;;;;;;;4.07;2.72;;;19.10;99.90;;;;;;5103458;28;20028;-78
2021/06/22 09:18:59;;;;;;;3.67;2.80;;;19.10;99.90;;;;;;5106457;28;20169;-77
2021/06/22 09:21:25;;;;;;;3.83;2.70;;;19.10;99.90;;;;;;5102144;28;20163;-78
2021/06/22 09:23:56;;;;;;;3.40;3.00;;;19.20;99.90;;;;;;5106516;28;20110;-77
2021/06/22 09:26:27;;;;;;;3.70;2.92;;;19.30;99.90;;;;;;5099270;28;20036;-78
2021/06/22 09:29:08;;;;;;;2.92;2.53;;;19.40;99.90;;;;;;5095178;28;20032;-78
2021/06/22 09:31:34;;;;;;;3.50;2.67;;;19.40;99.90;;;;;;5101407;28;20069;-78
2021/06/22 09:33:59;;;;;;;3.83;2.88;;;19.40;99.90;;;;;;5101830;28;20561;-77
2021/06/22 09:36:27;;;;;;;4.20;2.83;;;19.30;99.90;;;;;;5099861;28;20501;-85
2021/06/22 09:39:07;;;;;;;6.15;3.05;;;19.30;99.90;;;;;;5098829;28;20078;-82
2021/06/22 09:41:37;;;;;;;5.95;2.80;;;19.30;99.90;;;;;;5098337;28;20028;-79
2021/06/22 09:44:11;;;;;;;5.03;3.40;;;19.30;99.90;;;;;;5102378;28;20039;-84
2021/06/22 09:46:45;;;;;;;5.35;2.70;;;19.30;99.90;;;;;;5097420;28;20027;-79
2021/06/22 09:49:19;;;;;;;7.43;2.95;;;19.30;99.90;;;;;;5106403;28;20568;-77
2021/06/22 09:51:58;;;;;;;5.38;2.75;;;19.30;99.90;;;;;;5096783;28;20035;-77
2021/06/22 09:54:41;;;;;;;6.70;2.88;;;19.30;99.90;;;;;;5106553;28;20432;-76
2021/06/22 09:57:18;;;;;;;5.38;3.17;;;19.40;99.90;;;;;;5102453;28;20048;-75
2021/06/22 09:59:57;;;;;;;8.00;2.67;;;19.40;99.90;;;;;;5103929;28;20432;-76
2021/06/22 10:02:25;;;;;;;4.03;2.70;;;19.50;99.90;;;;;;5108580;28;20115;-77
2021/06/22 10:05:02;;;;;;;5.95;2.50;;;19.50;99.90;;;;;;5098590;28;20077;-77
2021/06/22 10:07:28;;;;;;;5.78;2.40;;;19.50;99.90;;;;;;5101375;28;20047;-78
2021/06/22 10:09:59;;;;;;;6.15;2.47;;;19.60;99.90;;;;;;5109767;28;20023;-77
2021/06/22 10:12:27;;;;;;;3.38;2.15;;;19.70;99.90;;;;;;5107040;28;20034;-78
2021/06/22 10:14:54;;;;;;;3.28;2.30;;;19.70;99.90;;;;;;5109421;28;20027;-78
2021/06/22 10:17:22;;;;;;;5.38;2.80;;;19.80;99.90;;;;;;5106321;28;20023;-79
2021/06/22 10:19:51;;;;;;;5.30;3.10;;;19.70;99.90;;;;;;5100457;28;20028;-77
2021/06/22 10:22:18;;;;;;;6.25;2.88;;;19.80;99.90;;;;;;5095091;28;20038;-77
2021/06/22 10:24:46;;;;;;;5.90;2.38;;;19.80;99.90;;;;;;5108551;28;20103;-77
2021/06/22 10:27:14;;;;;;;3.92;2.58;;;19.80;99.90;;;;;;5105209;28;20122;-78
2021/06/22 10:29:43;;;;;;;6.80;2.95;;;19.70;99.90;;;;;;5100199;28;20435;-78
2021/06/22 10:32:08;;;;;;;5.07;3.00;;;19.80;99.90;;;;;;5097359;28;20092;-78
2021/06/22 10:34:36;;;;;;;2.78;2.35;;;19.90;99.90;;;;;;5095948;28;20103;-78
2021/06/22 10:37:21;;;;;;;4.28;2.78;;;19.90;99.90;;;;;;5102130;28;20026;-78
2021/06/22 10:39:54;;;;;;;3.92;2.60;;;20.00;99.90;;;;;;5105477;28;20019;-78
2021/06/22 10:42:20;;;;;;;4.60;2.58;;;20.10;99.90;;;;;;5105286;27;20527;-78
2021/06/22 10:44:49;;;;;;;5.18;2.83;;;20.20;99.90;;;;;;5099107;28;20031;-78
2021/06/22 10:47:28;;;;;;;4.50;2.80;;;20.40;99.90;;;;;;5099955;28;20051;-78
2021/06/22 10:50:09;;;;;;;5.40;2.70;;;20.60;99.90;;;;;;5101978;28;20036;-78
2021/06/22 10:52:47;;;;;;;4.60;2.60;;;20.70;99.90;;;;;;5104437;28;20080;-79
2021/06/22 10:55:20;;;;;;;5.53;2.45;;;20.70;99.90;;;;;;5099518;28;20611;-80
2021/06/22 10:58:02;;;;;;;5.88;2.45;;;20.80;99.90;;;;;;5106302;28;20028;-78
2021/06/22 11:00:30;;;;;;;4.32;2.55;;;20.70;99.90;;;;;;5103274;28;20023;-79
2021/06/22 11:03:00;;;;;;;3.28;2.30;;;20.50;99.90;;;;;;5100552;28;20099;-79
2021/06/22 11:05:26;;;;;;;6.15;2.67;;;20.40;99.90;;;;;;5099796;28;20027;-78
2021/06/22 11:08:13;;;;;;;8.40;2.70;;;20.30;99.90;;;;;;5101886;28;20043;-78
2021/06/22 11:11:08;;;;;;;3.83;2.58;;;20.20;99.90;;;;;;5095608;28;20043;-78
2021/06/22 11:13:55;;;;;;;5.25;2.22;;;20.20;99.90;;;;;;5092370;28;20034;-78
2021/06/22 11:16:21;;;;;;;4.85;2.75;;;20.10;99.90;;;;;;5104795;28;20036;-78
2021/06/22 11:18:55;;;;;;;3.70;2.83;;;20.00;99.90;;;;;;5102698;28;20572;-78
2021/06/22 11:21:28;;;;;;;3.90;2.50;;;20.00;99.90;;;;;;5098284;28;20027;-79
2021/06/22 11:24:08;;;;;;;4.93;2.50;;;20.00;99.90;;;;;;5100527;28;20141;-78
2021/06/22 11:26:45;;;;;;;4.55;2.55;;;20.00;99.90;;;;;;5101450;28;20027;-78
2021/06/22 11:29:13;;;;;;;4.22;2.53;;;20.00;99.90;;;;;;5110333;28;20034;-78
2021/06/22 11:31:45;;;;;;;4.53;2.33;;;20.00;99.90;;;;;;5105942;28;20158;-78
2021/06/22 11:34:16;;;;;;;3.50;2.53;;;20.10;99.90;;;;;;5103650;28;20035;-78
2021/06/22 11:36:49;;;;;;;4.65;2.50;;;20.10;99.90;;;;;;5104316;28;20485;-77
2021/06/22 11:39:25;;;;;;;3.88;2.75;;;20.10;99.90;;;;;;5113080;28;20161;-78
2021/06/22 11:42:12;;;;;;;4.45;2.70;;;20.10;99.90;;;;;;5098322;28;20173;-79
2021/06/22 11:44:53;;;;;;;3.22;2.60;;;20.20;99.90;;;;;;5110400;28;20066;-78
2021/06/22 11:47:25;;;;;;;2.70;2.45;;;20.40;99.90;;;;;;5097901;28;20111;-78
2021/06/22 11:49:52;;;;;;;4.40;2.38;;;20.60;99.90;;;;;;5099116;28;20541;-79
2021/06/22 11:52:30;;;;;;;4.45;2.47;;;20.70;99.90;;;;;;5093706;28;20111;-78
2021/06/22 11:55:03;;;;;;;7.03;2.83;;;20.80;99.90;;;;;;5101393;28;20027;-79
2021/06/22 11:57:33;;;;;;;3.40;2.78;;;20.80;99.90;;;;;;5095435;28;20020;-78
2021/06/22 12:00:15;;;;;;;3.90;2.60;;;20.90;99.90;;;;;;5096459;28;20012;-78
2021/06/22 12:02:58;;;;;;;3.17;2.50;;;21.00;99.90;;;;;;5106916;28;20400;-78
2021/06/22 12:05:29;;;;;;;4.97;2.78;;;21.00;99.90;;;;;;5105355;28;20129;-79
2021/06/22 12:08:00;;;;;;;8.50;2.70;;;21.10;99.90;;;;;;5097241;28;20047;-78
2021/06/22 12:10:47;;;;;;;3.05;2.38;;;21.30;99.90;;;;;;5102169;28;20111;-78
2021/06/22 12:13:27;;;;;;;3.90;2.33;;;21.70;97.80;;;;;;5109740;28;20480;-79
2021/06/22 12:15:52;;;;;;;7.28;2.72;;;21.90;98.20;;;;;;5099010;28;20059;-79
2021/06/22 12:18:18;;;;;;;3.60;2.50;;;22.10;97.70;;;;;;5109975;28;20059;-79
2021/06/22 12:20:45;;;;;;;5.43;2.40;;;22.10;98.70;;;;;;5104716;28;20420;-78
2021/06/22 12:23:13;;;;;;;2.72;2.40;;;22.00;97.10;;;;;;5105377;28;20101;-79
2021/06/22 12:25:42;;;;;;;3.05;2.20;;;21.90;98.40;;;;;;5107287;28;20027;-79
2021/06/22 12:28:09;;;;;;;6.00;2.40;;;21.80;97.40;;;;;;5107952;28;20063;-79
2021/06/22 12:30:40;;;;;;;5.13;2.35;;;21.70;98.30;;;;;;5105175;27;20043;-80
2021/06/22 12:33:21;;;;;;;5.22;2.58;;;21.70;98.70;;;;;;5110460;28;20024;-79
2021/06/22 12:35:50;;;;;;;5.70;2.40;;;21.80;96.30;;;;;;5105239;28;20100;-79
2021/06/22 12:38:17;;;;;;;7.35;2.47;;;22.00;96.80;;;;;;5100699;28;20040;-81
2021/06/22 12:40:46;;;;;;;3.67;2.25;;;22.10;96.20;;;;;;5103762;28;20024;-82
2021/06/22 12:43:15;;;;;;;2.53;2.10;;;22.20;96.60;;;;;;5111338;28;20055;-79